Aviation Digital Data Service (ADDS)

Output produced by METARs form (1625 UTC 30 October 2020)
found at http://www.aviationweather.gov/metar/data/
 
KCSG 301612Z 36012G21KT 10SM FEW027 16/07 A3013 RMK AO2 T01560067
KCSG 301551Z 02010G19KT 340V050 10SM BKN026 15/07 A3014 RMK AO2 PK WND 01026/1504 SLP204 T01500067
KCSG 301503Z 3015/3112 01012G20KT P6SM BKN025 
     FM301700 36010G18KT P6SM SKC 
     FM310200 02006KT P6SM SKC 
     FM310900 06006KT P6SM SKC